Terminal Aerodrome Forecast
Issued by NWS

Home | Current Version | Previous Version | Text Only | Print | Product List | Glossary On
Versions: 1 2 3 4 5 6 7 8 9 10 11 12 13 14 15 16 17
000
FTUS42 KGSP 210500
TAFGMU
TAF
KGMU 210520Z 2106/2206 32003KT P6SM BKN250
     FM211300 36003KT P6SM FEW060 SCT250
     FM211700 29003KT P6SM FEW060 SCT250=

USA.gov is the U.S. government's official web portal to all federal, state and local government web resources and services.